Terminal Aerodrome Forecast
Issued by NWS

Home | Current Version | Previous Version | Text Only | Print | Product List | Glossary On
Versions: 1 2 3 4 5 6 7 8 9 10 11
257
FTPA31 PHFO 252204 AAB
TAFHJR
TAF AMD
PHJR 252204Z 2522/2618 10010G16KT P6SM BKN050
     FM260400 05004KT P6SM FEW050=

USA.gov is the U.S. government's official web portal to all federal, state and local government web resources and services.